Time;durP1;ratioP1;P1;durP2;ratioP2;P2;SDS_P1;SDS_P2;PMS_P1;PMS_P2;Temp;Humidity;BMP_temperature;BMP_pressure;BME280_temperature;BME280_humidity;BME280_pressure;Samples;Min_cycle;Max_cycle;Signal;HPM_P1;HPM_P2
2022/09/18 00:01:54;;;;;;;11.63;5.90;;;7.30;99.90;;;7.80;100.00;97871.78;5062456;27;130328;-74
2022/09/18 00:04:22;;;;;;;7.90;4.65;;;7.20;99.90;;;7.70;100.00;97873.00;5062041;27;130313;-73
2022/09/18 00:06:51;;;;;;;7.97;5.03;;;7.20;99.90;;;7.67;100.00;97862.09;5062325;27;118929;-72
2022/09/18 00:09:19;;;;;;;8.75;5.60;;;7.10;99.90;;;7.58;100.00;97869.47;5047380;27;114654;-74
2022/09/18 00:11:50;;;;;;;11.05;5.32;;;7.00;99.90;;;7.47;100.00;97869.88;5061923;27;129986;-76
2022/09/18 00:14:22;;;;;;;7.88;5.38;;;7.00;99.90;;;7.33;100.00;97864.75;5062267;27;130056;-76
2022/09/18 00:16:53;;;;;;;9.98;5.43;;;7.00;99.90;;;7.34;100.00;97865.53;5062241;27;118729;-73
2022/09/18 00:19:22;;;;;;;8.95;6.03;;;6.90;99.90;;;7.32;100.00;97867.75;5062722;27;115021;-72
2022/09/18 00:21:52;;;;;;;10.23;5.50;;;6.80;99.90;;;7.23;100.00;97861.66;5046495;27;130140;-74
2022/09/18 00:24:23;;;;;;;13.57;5.90;;;6.80;99.90;;;7.11;100.00;97852.38;5061697;27;129153;-75
2022/09/18 00:26:52;;;;;;;8.93;5.45;;;6.70;99.90;;;6.99;100.00;97838.81;5062298;27;119083;-76
2022/09/18 00:29:21;;;;;;;9.30;5.82;;;6.60;99.90;;;6.90;100.00;97841.56;5030035;27;113880;-73
2022/09/18 00:31:51;;;;;;;8.55;5.25;;;6.50;99.90;;;6.91;100.00;97826.97;5046121;27;129252;-74
2022/09/18 00:34:19;;;;;;;10.82;6.05;;;6.50;99.90;;;6.98;100.00;97831.81;5043192;27;129763;-73
2022/09/18 00:36:49;;;;;;;13.27;6.32;;;6.40;99.90;;;6.97;100.00;97824.88;5046885;27;118574;-73
2022/09/18 00:39:17;;;;;;;9.85;5.57;;;6.50;99.90;;;6.93;100.00;97823.94;5062144;27;115995;-73
2022/09/18 00:41:47;;;;;;;13.27;6.10;;;6.50;99.90;;;6.90;100.00;97830.00;5046503;27;128704;-73
2022/09/18 00:44:36;;;;;;;10.30;6.45;;;6.50;99.90;;;6.78;100.00;97818.00;5061488;27;129675;-74
2022/09/18 00:47:27;;;;;;;10.32;5.82;;;6.50;99.90;;;6.71;100.00;97828.50;5063549;27;118521;-72
2022/09/18 00:50:06;;;;;;;11.43;6.63;;;6.40;99.90;;;6.69;100.00;97819.97;5061750;27;115726;-73
2022/09/18 00:52:47;;;;;;;9.85;5.93;;;6.40;99.90;;;6.67;100.00;97811.44;5060814;27;129866;-73
2022/09/18 00:55:19;;;;;;;11.50;5.82;;;6.40;99.90;;;6.68;100.00;97823.00;5025867;27;129333;-72
2022/09/18 00:57:53;;;;;;;12.10;6.10;;;6.40;99.90;;;6.70;100.00;97816.16;5023255;27;118922;-71
2022/09/18 01:00:24;;;;;;;9.50;5.95;;;6.40;99.90;;;6.73;100.00;97814.72;5042695;27;115687;-72
2022/09/18 01:03:00;;;;;;;9.55;6.13;;;6.30;99.90;;;6.74;100.00;97809.00;5039934;27;130218;-72
2022/09/18 01:05:47;;;;;;;10.63;6.30;;;6.30;99.90;;;6.74;100.00;97813.59;5041120;27;129804;-72
2022/09/18 01:08:36;;;;;;;9.82;6.55;;;6.30;99.90;;;6.67;100.00;97806.03;5023130;27;119339;-73
2022/09/18 01:11:20;;;;;;;10.70;6.43;;;6.30;99.90;;;6.63;100.00;97810.50;5026214;27;114681;-73
2022/09/18 01:14:05;;;;;;;12.43;7.22;;;6.20;99.90;;;6.55;100.00;97814.81;5008421;27;129694;-73
2022/09/18 01:16:45;;;;;;;10.23;6.40;;;6.20;99.90;;;6.60;100.00;97805.75;5042539;27;129349;-73
2022/09/18 01:19:43;;;;;;;11.90;6.72;;;6.20;99.90;;;6.60;100.00;97808.44;5041005;27;119476;-73
2022/09/18 01:22:25;;;;;;;11.57;7.10;;;6.10;99.90;;;6.63;100.00;97805.09;5039044;27;115519;-73
2022/09/18 01:25:21;;;;;;;9.55;6.88;;;6.10;99.90;;;6.65;100.00;97805.56;5060883;27;130200;-74
2022/09/18 01:28:14;;;;;;;11.25;6.80;;;6.10;99.90;;;6.68;100.00;97796.81;5045672;27;129632;-72
2022/09/18 01:30:45;;;;;;;11.05;6.68;;;6.10;99.90;;;6.72;100.00;97786.19;5060492;27;120082;-72
2022/09/18 01:33:21;;;;;;;10.98;6.68;;;6.20;99.90;;;6.69;100.00;97790.31;5061904;27;115023;-73
2022/09/18 01:35:55;;;;;;;10.73;6.80;;;6.20;99.90;;;6.68;100.00;97777.16;5045307;27;129964;-74
2022/09/18 01:38:29;;;;;;;12.23;6.57;;;6.20;99.90;;;6.68;100.00;97786.03;5022606;27;129230;-72
2022/09/18 01:41:03;;;;;;;11.23;6.72;;;6.20;99.90;;;6.71;100.00;97779.22;5022445;27;119508;-72
2022/09/18 01:43:35;;;;;;;12.10;6.65;;;6.20;99.90;;;6.72;100.00;97770.78;5043052;27;115597;-73
2022/09/18 01:46:10;;;;;;;14.40;7.43;;;6.20;99.90;;;6.69;100.00;97779.53;5028934;27;129035;-73
2022/09/18 01:48:45;;;;;;;12.55;7.38;;;6.20;99.90;;;6.72;100.00;97773.50;5042449;27;130207;-73
2022/09/18 01:51:20;;;;;;;12.15;6.95;;;6.30;99.90;;;6.61;100.00;97780.38;5025945;27;118899;-72
2022/09/18 01:53:53;;;;;;;9.60;6.15;;;6.10;99.90;;;6.57;100.00;97784.84;5026010;27;115339;-72
2022/09/18 01:56:28;;;;;;;10.55;6.80;;;6.10;99.90;;;6.62;100.00;97792.72;5028829;27;129446;-73
2022/09/18 01:59:03;;;;;;;11.35;6.80;;;6.10;99.90;;;6.67;100.00;97789.88;5025777;27;129266;-74
2022/09/18 02:01:44;;;;;;;9.45;6.07;;;6.10;99.90;;;6.68;100.00;97790.66;5028576;27;118795;-75
2022/09/18 02:04:23;;;;;;;10.55;6.93;;;6.10;99.90;;;6.59;100.00;97790.69;5044281;27;115032;-75
2022/09/18 02:07:00;;;;;;;12.90;6.78;;;6.10;99.90;;;6.58;100.00;97791.81;5028508;27;130184;-74
2022/09/18 02:09:30;;;;;;;9.95;7.50;;;6.20;99.90;;;6.61;100.00;97786.56;5025647;27;129324;-73
2022/09/18 02:12:03;;;;;;;11.23;6.95;;;6.20;99.90;;;6.66;100.00;97788.28;5028504;27;118584;-72
2022/09/18 02:14:40;;;;;;;11.05;7.45;;;6.20;99.90;;;6.68;100.00;97785.25;5025713;27;115111;-73
2022/09/18 02:17:34;;;;;;;12.48;7.35;;;6.20;99.90;;;6.67;100.00;97784.47;5031077;27;129475;-73
2022/09/18 02:20:09;;;;;;;11.55;7.03;;;6.20;99.90;;;6.72;100.00;97796.97;5025226;27;129321;-73
2022/09/18 02:22:39;;;;;;;12.23;6.83;;;6.20;99.90;;;6.74;100.00;97790.13;5043703;27;118883;-71
2022/09/18 02:25:11;;;;;;;12.82;8.15;;;6.20;99.90;;;6.75;100.00;97790.94;5028927;27;114828;-73
2022/09/18 02:27:43;;;;;;;11.55;7.57;;;6.20;99.90;;;6.74;100.00;97779.34;5043400;27;129942;-73
2022/09/18 02:30:14;;;;;;;11.85;8.30;;;6.20;99.90;;;6.74;100.00;97779.34;5011366;27;128480;-73
2022/09/18 02:32:43;;;;;;;11.15;7.95;;;6.30;99.90;;;6.75;100.00;97778.22;5025481;27;119596;-73
2022/09/18 02:35:13;;;;;;;16.10;8.73;;;6.20;99.90;;;6.78;100.00;97780.25;5045425;27;115635;-72
2022/09/18 02:37:55;;;;;;;12.15;7.95;;;6.20;99.90;;;6.76;100.00;97785.22;5041813;27;130140;-73
2022/09/18 02:40:37;;;;;;;14.20;8.75;;;6.30;99.90;;;6.71;100.00;97784.59;5028218;27;129077;-73
2022/09/18 02:43:27;;;;;;;13.07;8.32;;;6.30;99.90;;;6.69;100.00;97782.22;5028432;27;117803;-73
2022/09/18 02:46:08;;;;;;;12.68;7.60;;;6.30;99.90;;;6.64;100.00;97790.53;5028269;27;114517;-72
2022/09/18 02:48:53;;;;;;;10.43;7.88;;;6.30;99.90;;;6.66;100.00;97786.34;5044668;27;130292;-73
2022/09/18 02:51:31;;;;;;;14.73;8.48;;;6.20;99.90;;;6.64;100.00;97779.72;5028085;27;130196;-73
2022/09/18 02:54:06;;;;;;;13.23;8.82;;;6.20;99.90;;;6.60;100.00;97789.59;5024754;27;118899;-74
2022/09/18 02:56:42;;;;;;;13.90;8.63;;;6.20;99.90;;;6.58;100.00;97781.81;5011399;27;115412;-73
2022/09/18 02:59:20;;;;;;;15.32;8.60;;;6.20;99.90;;;6.62;100.00;97787.34;5024231;27;130262;-72
2022/09/18 03:01:58;;;;;;;12.95;7.88;;;6.20;99.90;;;6.69;100.00;97793.00;5025762;27;130314;-72
2022/09/18 03:04:28;;;;;;;14.27;7.80;;;6.20;99.90;;;6.74;100.00;97778.56;5064970;27;118563;-71
2022/09/18 03:07:20;;;;;;;12.13;8.73;;;6.20;99.90;;;6.76;100.00;97776.31;5055379;27;114917;-71
2022/09/18 03:09:51;;;;;;;14.02;9.18;;;6.20;99.90;;;6.70;100.00;97764.94;5048184;27;129231;-72
2022/09/18 03:12:19;;;;;;;13.25;8.55;;;6.20;99.90;;;6.66;100.00;97766.72;5061573;27;129898;-71
2022/09/18 03:14:53;;;;;;;14.45;9.32;;;6.20;99.90;;;6.66;100.00;97766.72;5063297;27;118774;-72
2022/09/18 03:17:24;;;;;;;12.52;8.30;;;6.20;99.90;;;6.69;100.00;97766.06;5045221;27;114874;-72
2022/09/18 03:19:53;;;;;;;15.00;9.07;;;6.20;99.90;;;6.65;100.00;97770.50;5044368;27;129903;-73
2022/09/18 03:22:22;;;;;;;17.30;8.70;;;6.30;99.90;;;6.59;100.00;97763.72;5064763;27;129612;-73
2022/09/18 03:24:51;;;;;;;16.60;9.90;;;6.30;99.90;;;6.53;100.00;97762.34;5030593;27;119104;-74
2022/09/18 03:27:20;;;;;;;14.52;9.82;;;6.20;99.90;;;6.55;100.00;97754.75;5048206;27;116230;-73
2022/09/18 03:29:48;;;;;;;14.32;9.27;;;6.30;99.90;;;6.60;100.00;97754.53;5061558;27;130801;-74
2022/09/18 03:32:19;;;;;;;14.63;10.43;;;6.20;99.90;;;6.68;100.00;97747.50;5030645;27;128463;-74
2022/09/18 03:34:52;;;;;;;18.33;10.55;;;6.20;99.90;;;6.69;100.00;97744.50;5047280;27;119912;-74
2022/09/18 03:37:21;;;;;;;14.43;10.15;;;6.20;99.90;;;6.67;100.00;97746.72;5044381;27;115898;-73
2022/09/18 03:39:51;;;;;;;13.88;9.50;;;6.20;99.90;;;6.67;100.00;97757.50;5047213;27;129075;-74
2022/09/18 03:42:19;;;;;;;14.02;9.98;;;6.20;99.90;;;6.65;100.00;97755.16;5044218;27;129449;-73
2022/09/18 03:44:49;;;;;;;14.82;9.18;;;6.20;99.90;;;6.68;100.00;97759.06;5064899;27;118229;-76
2022/09/18 03:47:28;;;;;;;12.63;8.98;;;6.10;99.90;;;6.71;100.00;97758.41;5048229;27;115323;-75
2022/09/18 03:49:58;;;;;;;13.02;9.35;;;6.10;99.90;;;6.68;100.00;97763.69;5062025;27;129891;-74
2022/09/18 03:52:27;;;;;;;15.85;10.05;;;6.10;99.90;;;6.64;100.00;97758.16;5044495;27;129443;-75
2022/09/18 03:55:00;;;;;;;18.25;10.15;;;6.00;99.90;;;6.60;100.00;97751.84;5061080;27;118739;-73
2022/09/18 03:57:49;;;;;;;14.07;10.10;;;6.00;99.90;;;6.58;100.00;97737.91;5062477;27;116459;-73
2022/09/18 04:00:47;;;;;;;18.23;10.30;;;6.10;99.90;;;6.49;100.00;97743.34;5042005;27;130425;-74
2022/09/18 04:03:24;;;;;;;15.93;10.80;;;6.10;99.90;;;6.50;100.00;97746.81;5029591;27;129325;-73
2022/09/18 04:06:13;;;;;;;16.60;11.07;;;6.10;99.90;;;6.59;100.00;97750.25;5046170;27;118597;-73
2022/09/18 04:09:15;;;;;;;13.65;10.10;;;6.10;99.90;;;6.71;100.00;97747.63;5051433;27;115701;-72
2022/09/18 04:11:53;;;;;;;17.10;10.10;;;6.10;99.90;;;6.82;100.00;97754.22;5047043;27;129968;-75
2022/09/18 04:14:23;;;;;;;14.27;9.60;;;6.20;99.90;;;6.97;100.00;97741.25;5060473;27;129131;-74
2022/09/18 04:16:51;;;;;;;14.73;10.20;;;6.40;99.90;;;7.10;100.00;97748.28;5046969;27;118425;-75
2022/09/18 04:19:20;;;;;;;12.95;9.50;;;6.50;99.90;;;7.23;100.00;97746.44;5030381;27;115440;-73
2022/09/18 04:21:50;;;;;;;15.88;10.27;;;6.60;99.90;;;7.32;100.00;97749.84;5062036;27;130854;-74
2022/09/18 04:24:20;;;;;;;14.90;10.73;;;6.60;99.90;;;7.38;100.00;97758.50;5026736;27;129507;-73
2022/09/18 04:26:48;;;;;;;15.07;10.00;;;6.70;99.90;;;7.43;100.00;97760.97;5029934;27;118068;-76
2022/09/18 04:29:18;;;;;;;12.20;9.50;;;6.80;99.90;;;7.44;100.00;97757.16;5030481;27;115266;-77
2022/09/18 04:31:47;;;;;;;15.68;9.25;;;6.80;99.90;;;7.40;100.00;97753.53;5043502;27;130038;-73
2022/09/18 04:34:18;;;;;;;15.05;9.05;;;6.70;99.90;;;7.37;100.00;97746.16;5046748;27;129092;-75
2022/09/18 04:36:47;;;;;;;17.35;9.05;;;6.70;99.90;;;7.42;100.00;97751.31;5029693;27;118718;-73
2022/09/18 04:39:17;;;;;;;12.90;8.48;;;6.80;99.90;;;7.45;100.00;97747.97;5044022;27;115116;-73
2022/09/18 04:41:46;;;;;;;15.38;8.35;;;6.80;99.90;;;7.51;100.00;97752.03;5046573;27;129628;-72
2022/09/18 04:44:16;;;;;;;16.08;9.27;;;6.80;99.90;;;7.58;100.00;97750.69;5043370;27;129501;-72
2022/09/18 04:46:45;;;;;;;14.43;8.63;;;6.80;99.90;;;7.60;100.00;97740.34;5063612;27;118511;-73
2022/09/18 04:49:17;;;;;;;14.48;8.32;;;6.90;99.90;;;7.59;100.00;97741.44;5043911;27;115679;-74
2022/09/18 04:51:47;;;;;;;13.07;8.23;;;6.90;99.90;;;7.70;100.00;97745.31;5046256;27;130640;-73
2022/09/18 04:54:18;;;;;;;15.93;8.55;;;7.00;99.90;;;7.94;100.00;97746.47;5043319;27;129244;-74
2022/09/18 04:56:47;;;;;;;15.02;8.95;;;7.20;99.90;;;8.09;100.00;97743.09;5043625;27;119473;-73
2022/09/18 04:59:17;;;;;;;11.18;7.57;;;7.30;99.90;;;8.28;100.00;97735.19;5063698;27;114659;-74
2022/09/18 05:01:48;;;;;;;13.23;8.07;;;7.50;99.90;;;8.27;100.00;97733.66;5062489;27;130009;-75
2022/09/18 05:04:17;;;;;;;11.13;7.90;;;7.50;99.90;;;8.13;100.00;97730.47;5043089;27;129680;-75
2022/09/18 05:07:00;;;;;;;13.40;8.70;;;7.40;99.90;;;8.06;100.00;97730.28;5046382;27;118463;-74
2022/09/18 05:09:30;;;;;;;14.30;9.32;;;7.40;99.90;;;8.20;100.00;97733.41;5029593;27;114971;-74
2022/09/18 05:12:00;;;;;;;13.73;8.60;;;7.50;99.90;;;8.34;100.00;97737.69;5042941;27;129826;-73
2022/09/18 05:14:29;;;;;;;12.35;8.73;;;7.60;99.90;;;8.37;100.00;97728.91;5046161;27;129920;-73
2022/09/18 05:17:02;;;;;;;14.98;9.93;;;7.60;99.90;;;8.43;100.00;97730.22;5044684;27;118669;-71
2022/09/18 05:19:39;;;;;;;16.30;11.20;;;7.60;99.90;;;8.57;100.00;97735.31;5050438;27;114907;-71
2022/09/18 05:22:14;;;;;;;14.20;9.55;;;7.70;99.90;;;8.68;100.00;97724.81;5032681;27;130189;-72
2022/09/18 05:24:50;;;;;;;13.02;9.50;;;7.90;99.90;;;8.81;100.00;97724.44;5050161;27;129144;-70
2022/09/18 05:27:18;;;;;;;16.35;9.73;;;8.00;99.90;;;8.85;100.00;97734.56;5046532;27;119430;-75
2022/09/18 05:29:47;;;;;;;13.63;9.23;;;8.00;99.90;;;9.04;100.00;97731.22;5066996;27;114633;-70
2022/09/18 05:32:20;;;;;;;15.13;10.18;;;8.20;99.90;;;9.22;100.00;97727.09;5046078;27;130528;-70
2022/09/18 05:34:49;;;;;;;15.77;9.70;;;8.30;99.90;;;9.31;100.00;97725.03;5032001;27;129351;-71
2022/09/18 05:37:19;;;;;;;11.30;9.45;;;8.40;99.90;;;9.45;100.00;97723.84;5046438;27;120081;-74
2022/09/18 05:39:53;;;;;;;14.98;10.38;;;8.50;99.90;;;9.63;100.00;97732.41;5050244;27;114654;-71
2022/09/18 05:42:22;;;;;;;17.63;10.68;;;8.60;99.90;;;9.64;100.00;97721.22;5048958;27;129867;-71
2022/09/18 05:44:51;;;;;;;17.88;11.52;;;8.60;99.90;;;9.60;100.00;97730.38;5045709;27;130162;-70
2022/09/18 05:47:24;;;;;;;16.77;11.30;;;8.60;99.90;;;9.70;100.00;97725.25;5049075;27;118549;-71
2022/09/18 05:49:53;;;;;;;14.52;10.45;;;8.70;99.90;;;9.83;100.00;97734.09;5045932;27;116692;-70
2022/09/18 05:52:24;;;;;;;15.35;10.55;;;8.80;99.90;;;10.00;100.00;97732.97;5048600;27;130352;-70
2022/09/18 05:54:55;;;;;;;16.38;10.75;;;9.00;99.90;;;10.15;100.00;97730.59;5061104;27;129676;-71
2022/09/18 05:57:24;;;;;;;16.58;10.93;;;9.10;99.90;;;10.24;100.00;97737.38;5062388;27;119054;-70
2022/09/18 05:59:52;;;;;;;16.77;10.43;;;9.20;99.90;;;10.34;100.00;97741.50;5030915;27;115823;-70
2022/09/18 06:02:21;;;;;;;15.73;10.25;;;9.20;99.90;;;10.45;100.00;97735.53;5046625;27;129471;-70
2022/09/18 06:05:04;;;;;;;17.13;10.77;;;9.30;99.90;;;10.28;100.00;97726.59;5060154;27;129440;-74
2022/09/18 06:07:32;;;;;;;17.17;10.73;;;9.20;99.90;;;10.17;100.00;97736.44;5036122;27;117578;-73
2022/09/18 06:10:03;;;;;;;13.98;11.07;;;9.10;99.90;;;10.27;100.00;97722.34;5051391;27;115988;-70
2022/09/18 06:12:32;;;;;;;15.25;10.52;;;9.20;99.90;;;10.47;100.00;97719.69;5030214;27;129395;-70
2022/09/18 06:15:03;;;;;;;15.82;10.98;;;9.40;99.90;;;10.51;100.00;97723.28;5043386;27;130438;-71
2022/09/18 06:17:32;;;;;;;16.42;11.35;;;9.40;99.90;;;10.72;100.00;97729.19;5058407;27;118663;-73
2022/09/18 06:20:04;;;;;;;17.73;10.80;;;9.60;99.90;;;11.01;99.82;97732.47;5044101;27;116091;-74
2022/09/18 06:22:33;;;;;;;16.88;10.38;;;9.90;99.90;;;11.38;98.63;97737.44;5044070;27;130343;-74
2022/09/18 06:25:04;;;;;;;13.40;9.50;;;10.20;99.90;;;11.74;96.54;97731.88;5062458;27;129641;-74
2022/09/18 06:27:36;;;;;;;17.88;12.73;;;10.50;99.90;;;12.09;94.47;97742.59;5049773;27;119398;-72
2022/09/18 06:30:05;;;;;;;18.08;9.77;;;10.70;99.90;;;12.35;91.70;97743.75;5061443;27;115740;-71
2022/09/18 06:32:36;;;;;;;14.05;9.68;;;10.90;98.40;;;12.58;90.27;97736.31;5060640;27;130518;-72
2022/09/18 06:35:06;;;;;;;15.77;9.85;;;11.00;90.10;;;12.85;88.24;97739.00;5057072;27;129873;-74
2022/09/18 06:37:34;;;;;;;15.20;10.13;;;11.30;90.20;;;13.10;86.22;97728.44;5041277;27;118816;-74
2022/09/18 06:40:14;;;;;;;15.20;11.02;;;11.50;61.70;;;13.14;84.66;97728.47;5061829;27;115450;-71
2022/09/18 06:43:03;;;;;;;27.08;19.00;;;11.50;38.90;;;13.01;84.06;97724.41;5050060;27;129822;-71
2022/09/18 06:45:54;;;;;;;26.67;16.73;;;11.40;38.50;;;12.98;84.72;97719.69;5060240;27;129932;-69
2022/09/18 06:48:28;;;;;;;16.35;12.57;;;11.50;40.60;;;12.76;84.45;97719.41;5041836;27;118802;-74
2022/09/18 06:50:59;;;;;;;17.92;12.90;;;11.40;29.70;;;12.64;86.03;97722.41;5043522;27;115774;-71
2022/09/18 06:53:30;;;;;;;20.00;11.30;;;11.30;39.70;;;12.93;85.87;97710.72;5043066;27;130315;-75
2022/09/18 06:56:05;;;;;;;14.02;8.68;;;11.60;44.50;;;13.21;85.08;97711.41;5043390;27;129561;-75
2022/09/18 06:58:37;;;;;;;13.27;8.27;;;11.80;37.70;;;13.38;83.21;97710.06;5046864;27;118292;-75
2022/09/18 07:01:05;;;;;;;11.38;8.40;;;11.90;19.50;;;13.12;82.55;97709.75;5046548;27;115104;-76
2022/09/18 07:03:40;;;;;;;12.15;8.75;;;11.70;17.20;;;13.18;83.10;97707.47;5042912;27;129939;-73
2022/09/18 07:06:21;;;;;;;10.70;8.05;;;11.80;15.40;;;13.28;83.02;97697.88;5052584;27;129126;-75
2022/09/18 07:08:52;;;;;;;13.98;8.60;;;11.90;16.70;;;13.09;84.60;97698.84;5043167;27;118724;-75
2022/09/18 07:11:42;;;;;;;10.27;7.63;;;11.60;36.60;;;12.95;86.47;97694.78;5049931;27;115051;-74
2022/09/18 07:14:11;;;;;;;14.88;9.50;;;11.50;54.90;;;12.64;88.39;97701.41;5042252;27;129871;-75
2022/09/18 07:16:40;;;;;;;15.23;9.85;;;11.30;72.00;;;12.34;91.18;97698.66;5059414;27;130185;-74
2022/09/18 07:19:08;;;;;;;17.52;9.75;;;11.20;90.20;;;12.33;91.98;97697.88;5042663;27;120153;-75
2022/09/18 07:21:38;;;;;;;13.00;9.57;;;11.20;90.20;;;12.36;91.55;97701.81;5045939;27;114969;-76
2022/09/18 07:24:07;;;;;;;12.82;8.98;;;11.30;91.10;;;12.62;90.15;97703.72;5042036;27;129861;-74
2022/09/18 07:26:36;;;;;;;12.25;8.68;;;11.30;81.10;;;12.99;88.52;97700.25;5045510;27;129623;-74
2022/09/18 07:29:07;;;;;;;10.73;8.05;;;11.50;65.40;;;13.13;86.70;97699.66;5030959;27;118117;-73
2022/09/18 07:31:37;;;;;;;13.57;8.10;;;11.70;52.20;;;13.40;85.60;97685.94;5060225;27;115312;-72
2022/09/18 07:34:09;;;;;;;11.85;8.15;;;12.00;39.60;;;13.46;83.90;97696.16;5042135;27;130372;-73
2022/09/18 07:36:37;;;;;;;11.73;7.22;;;12.00;30.00;;;13.46;84.00;97689.91;5059484;27;130107;-77
2022/09/18 07:39:06;;;;;;;13.60;8.40;;;12.00;34.20;;;13.56;82.59;97683.78;5040098;27;119304;-73
2022/09/18 07:41:57;;;;;;;10.77;7.75;;;12.10;19.10;;;13.62;82.26;97687.72;5044249;27;115076;-72
2022/09/18 07:44:28;;;;;;;10.75;7.95;;;11.90;24.00;;;13.91;81.70;97684.44;5059879;27;129921;-73
2022/09/18 07:46:57;;;;;;;14.35;7.97;;;12.30;20.30;;;14.13;81.29;97688.13;5062833;27;129492;-75
2022/09/18 07:49:26;;;;;;;11.95;8.82;;;12.50;15.10;;;13.90;81.05;97694.59;5035277;27;117910;-75
2022/09/18 07:51:55;;;;;;;11.70;8.35;;;12.30;17.60;;;13.82;81.47;97684.75;5046127;27;114914;-74
2022/09/18 07:54:24;;;;;;;15.18;9.52;;;12.30;11.20;;;13.73;82.00;97687.00;5042204;27;129945;-75
2022/09/18 07:57:05;;;;;;;12.30;8.77;;;12.20;17.40;;;13.80;81.81;97681.63;5060083;27;129712;-69
2022/09/18 07:59:47;;;;;;;12.93;7.95;;;12.30;16.80;;;13.62;81.70;97676.81;5043135;27;118403;-74
2022/09/18 08:02:15;;;;;;;13.63;9.90;;;12.00;12.80;;;13.18;84.10;97674.03;5045763;27;114662;-74
2022/09/18 08:04:44;;;;;;;15.95;8.63;;;11.80;25.10;;;13.22;84.39;97683.03;5045464;27;129376;-74
2022/09/18 08:07:33;;;;;;;12.85;9.10;;;11.90;28.00;;;13.36;84.75;97666.06;5061240;27;128960;-76
2022/09/18 08:10:18;;;;;;;11.48;8.30;;;12.10;20.20;;;13.05;85.39;97671.56;5060901;27;118857;-77
2022/09/18 08:13:04;;;;;;;10.53;8.20;;;11.90;24.20;;;13.05;85.70;97665.31;5060776;27;115212;-75
2022/09/18 08:15:54;;;;;;;11.98;8.55;;;12.00;20.10;;;13.26;85.30;97659.31;5015750;27;130248;-74
2022/09/18 08:18:43;;;;;;;12.20;8.70;;;12.20;19.70;;;13.29;84.12;97653.91;5059960;27;129784;-74
2022/09/18 08:21:33;;;;;;;12.07;8.43;;;12.10;17.20;;;13.31;83.82;97651.59;5040764;27;119332;-74
2022/09/18 08:24:06;;;;;;;12.10;9.70;;;12.10;14.50;;;13.18;84.84;97655.72;5063151;27;115050;-75
2022/09/18 08:26:37;;;;;;;14.30;9.05;;;12.10;19.10;;;13.14;85.24;97654.94;5041997;27;129869;-77
2022/09/18 08:29:17;;;;;;;12.93;9.45;;;12.00;19.30;;;13.09;85.43;97655.28;5060063;27;129633;-74
2022/09/18 08:31:54;;;;;;;15.48;9.32;;;12.00;23.90;;;12.93;86.31;97648.09;5045284;27;117842;-75
2022/09/18 08:34:27;;;;;;;13.93;9.43;;;11.90;21.20;;;12.82;87.35;97641.72;5045387;27;115507;-75
2022/09/18 08:36:59;;;;;;;13.30;9.35;;;11.80;26.50;;;12.80;87.50;97635.88;5044795;27;130164;-74
2022/09/18 08:39:51;;;;;;;14.02;9.93;;;11.80;30.00;;;12.68;88.79;97631.47;5060680;27;129263;-76
2022/09/18 08:42:41;;;;;;;16.17;10.20;;;11.80;33.10;;;12.66;88.89;97624.84;5059061;27;119285;-75
2022/09/18 08:45:46;;;;;;;16.83;10.00;;;11.80;31.40;;;12.58;89.66;97627.47;5042966;27;115708;-74
2022/09/18 08:48:26;;;;;;;15.32;10.43;;;11.80;35.70;;;12.64;89.96;97638.03;5060157;27;130138;-73
2022/09/18 08:51:04;;;;;;;12.40;9.98;;;11.80;39.00;;;12.69;89.67;97632.25;5059965;27;129610;-74
2022/09/18 08:53:40;;;;;;;14.32;10.38;;;11.90;33.10;;;12.83;89.15;97637.09;5042969;27;118701;-73
2022/09/18 08:56:30;;;;;;;14.10;10.60;;;12.00;33.10;;;12.80;88.97;97633.16;5047666;27;115698;-72
2022/09/18 08:59:45;;;;;;;16.52;10.20;;;11.90;36.60;;;12.81;89.52;97629.28;4988351;28;130338;-73
2022/09/18 09:02:41;;;;;;;14.98;10.32;;;11.90;40.80;;;12.74;89.25;97635.41;4982452;28;103300;-73
2022/09/18 09:05:17;;;;;;;18.48;9.88;;;11.90;39.90;;;12.62;89.41;97627.53;5025289;27;118653;-73
2022/09/18 09:08:17;;;;;;;16.17;11.50;;;11.80;34.60;;;12.44;90.61;97624.56;5042568;27;114267;-74
2022/09/18 09:10:56;;;;;;;13.05;10.73;;;11.70;41.00;;;12.52;91.12;97618.06;5024925;27;129121;-76
2022/09/18 09:14:05;;;;;;;15.25;10.80;;;11.80;47.30;;;12.67;90.31;97619.03;5038496;27;129350;-71
2022/09/18 09:16:43;;;;;;;15.82;11.00;;;11.90;40.50;;;12.75;89.25;97625.34;5043518;27;118192;-73
2022/09/18 09:19:31;;;;;;;14.02;10.55;;;11.90;34.90;;;12.82;89.74;97625.41;5039555;27;117293;-72
2022/09/18 09:22:16;;;;;;;15.70;10.98;;;12.00;38.90;;;12.85;89.72;97624.66;5040399;27;129869;-72
2022/09/18 09:25:01;;;;;;;16.27;10.35;;;12.10;30.10;;;12.97;89.49;97620.13;5024767;27;128834;-73
2022/09/18 09:28:10;;;;;;;17.13;11.80;;;12.20;35.80;;;12.94;88.29;97622.41;5025715;27;118480;-74
2022/09/18 09:31:03;;;;;;;15.32;10.27;;;12.00;28.60;;;12.98;88.54;97621.69;5025329;27;115133;-74
2022/09/18 09:33:58;;;;;;;15.32;10.57;;;12.10;30.20;;;12.74;89.06;97623.75;5030610;27;129841;-74
2022/09/18 09:36:50;;;;;;;16.75;10.57;;;12.00;30.20;;;12.59;90.65;97629.03;5041929;27;129708;-74
2022/09/18 09:39:27;;;;;;;14.20;10.13;;;11.90;37.50;;;12.54;90.70;97632.09;5022175;27;119133;-73
2022/09/18 09:42:04;;;;;;;16.77;11.13;;;11.90;32.60;;;12.68;90.88;97631.47;5042300;27;115170;-73
2022/09/18 09:44:39;;;;;;;17.58;12.93;;;12.00;30.30;;;12.84;89.39;97631.28;5023982;27;129860;-73
2022/09/18 09:47:26;;;;;;;21.70;14.70;;;12.10;24.20;;;12.79;88.98;97628.09;5044888;27;130133;-73
2022/09/18 09:50:11;;;;;;;15.43;9.88;;;12.10;26.10;;;12.80;88.61;97632.38;5060769;27;118793;-74
2022/09/18 09:52:45;;;;;;;14.63;9.32;;;12.10;24.00;;;12.83;88.44;97624.25;5045919;27;114614;-74
2022/09/18 09:55:25;;;;;;;13.90;10.48;;;12.10;20.10;;;12.97;87.82;97631.03;5041982;27;130335;-74
2022/09/18 09:58:13;;;;;;;13.45;9.25;;;12.20;19.10;;;13.05;87.10;97632.66;5045225;27;130057;-74
2022/09/18 10:00:53;;;;;;;15.23;9.00;;;12.20;17.20;;;13.06;86.94;97634.22;5060261;27;119309;-74
2022/09/18 10:03:46;;;;;;;11.43;8.80;;;12.20;13.20;;;13.09;86.61;97633.47;5059108;27;114968;-73
2022/09/18 10:06:33;;;;;;;13.43;9.02;;;12.30;12.00;;;13.05;86.75;97638.88;5045230;27;129955;-74
2022/09/18 10:09:14;;;;;;;13.05;7.32;;;12.20;15.50;;;13.24;85.94;97629.72;5063803;27;130381;-75
2022/09/18 10:11:57;;;;;;;14.38;8.32;;;12.40;7.60;;;13.34;84.17;97617.41;5062888;27;118798;-75
2022/09/18 10:14:40;;;;;;;14.55;9.05;;;12.50;1.00;;;13.36;85.45;97625.97;5066884;27;114549;-75
2022/09/18 10:17:15;;;;;;;13.43;8.63;;;12.50;8.10;;;13.46;84.97;97638.13;5062849;27;130221;-74
2022/09/18 10:19:44;;;;;;;14.13;9.20;;;12.50;7.50;;;13.64;84.43;97627.38;5062174;27;129802;-74
2022/09/18 10:22:19;;;;;;;12.18;9.60;;;12.70;1.00;;;13.75;83.19;97624.75;5044860;27;119561;-75
2022/09/18 10:24:57;;;;;;;14.00;9.77;;;12.60;1.00;;;13.83;82.40;97634.53;5048510;27;114944;-75
2022/09/18 10:27:30;;;;;;;15.98;9.20;;;12.70;1.00;;;13.98;81.32;97627.25;5061707;27;130603;-74
2022/09/18 10:29:59;;;;;;;13.88;8.93;;;12.80;1.00;;;13.61;83.01;97628.91;5064599;27;129591;-74
2022/09/18 10:32:42;;;;;;;13.93;9.27;;;12.60;1.00;;;14.05;81.82;97618.31;5058734;27;118228;-75
2022/09/18 10:35:43;;;;;;;14.65;8.25;;;13.10;1.00;;;14.15;80.20;97614.88;5046694;27;115094;-73
2022/09/18 10:38:36;;;;;;;12.18;8.40;;;13.10;1.00;;;14.31;79.82;97607.16;5061320;27;131388;-72
2022/09/18 10:41:39;;;;;;;12.70;9.15;;;13.10;1.00;;;14.31;78.98;97601.72;5043667;27;129492;-74
2022/09/18 10:44:26;;;;;;;14.27;7.75;;;13.20;1.00;;;14.78;77.92;97601.16;5031761;27;118658;-73
2022/09/18 10:47:08;;;;;;;10.95;7.50;;;13.60;1.00;;;15.26;73.91;97614.50;5045464;27;115865;-76
2022/09/18 10:49:40;;;;;;;;;;;13.80;1.00;;;15.50;73.00;97606.72;5048148;27;130085;-72